sensor_id;sensor_type;location;lat;lon;timestamp;P1;durP1;ratioP1;P2;durP2;ratioP2
71622;SDS011;59473;53.214;5.728;2023-03-01T00:00:38;225.50;;;19.70;;
71622;SDS011;59473;53.214;5.728;2023-03-01T00:03:03;254.82;;;17.10;;
71622;SDS011;59473;53.214;5.728;2023-03-01T00:05:28;199.93;;;16.30;;
71622;SDS011;59473;53.214;5.728;2023-03-01T00:07:53;116.23;;;13.47;;
71622;SDS011;59473;53.214;5.728;2023-03-01T00:10:19;168.47;;;16.50;;
71622;SDS011;59473;53.214;5.728;2023-03-01T00:12:44;74.07;;;12.50;;
71622;SDS011;59473;53.214;5.728;2023-03-01T00:15:09;52.83;;;10.43;;
71622;SDS011;59473;53.214;5.728;2023-03-01T00:17:34;57.03;;;10.50;;
71622;SDS011;59473;53.214;5.728;2023-03-01T00:20:00;103.03;;;12.20;;
71622;SDS011;59473;53.214;5.728;2023-03-01T00:22:26;35.87;;;9.50;;
71622;SDS011;59473;53.214;5.728;2023-03-01T00:24:53;14.77;;;9.90;;
71622;SDS011;59473;53.214;5.728;2023-03-01T00:27:18;21.47;;;10.00;;
71622;SDS011;59473;53.214;5.728;2023-03-01T00:29:43;25.53;;;9.90;;
71622;SDS011;59473;53.214;5.728;2023-03-01T00:32:08;15.63;;;9.30;;
71622;SDS011;59473;53.214;5.728;2023-03-01T00:34:33;15.40;;;10.20;;
71622;SDS011;59473;53.214;5.728;2023-03-01T00:36:59;13.47;;;10.10;;
71622;SDS011;59473;53.214;5.728;2023-03-01T00:39:30;57.17;;;10.80;;
71622;SDS011;59473;53.214;5.728;2023-03-01T00:41:55;105.23;;;15.30;;
71622;SDS011;59473;53.214;5.728;2023-03-01T00:44:21;104.82;;;16.08;;
71622;SDS011;59473;53.214;5.728;2023-03-01T00:46:46;78.73;;;12.47;;
71622;SDS011;59473;53.214;5.728;2023-03-01T00:49:11;242.50;;;20.70;;
71622;SDS011;59473;53.214;5.728;2023-03-01T00:51:37;47.70;;;13.20;;
71622;SDS011;59473;53.214;5.728;2023-03-01T00:54:04;480.20;;;30.05;;
71622;SDS011;59473;53.214;5.728;2023-03-01T00:56:29;288.20;;;24.83;;
71622;SDS011;59473;53.214;5.728;2023-03-01T00:58:55;354.43;;;24.43;;
71622;SDS011;59473;53.214;5.728;2023-03-01T01:01:21;377.10;;;26.67;;
71622;SDS011;59473;53.214;5.728;2023-03-01T01:03:51;204.90;;;21.55;;
71622;SDS011;59473;53.214;5.728;2023-03-01T01:06:17;148.18;;;16.90;;
71622;SDS011;59473;53.214;5.728;2023-03-01T01:08:43;90.57;;;16.15;;
71622;SDS011;59473;53.214;5.728;2023-03-01T01:11:09;78.20;;;14.27;;
71622;SDS011;59473;53.214;5.728;2023-03-01T01:13:34;104.25;;;17.27;;
71622;SDS011;59473;53.214;5.728;2023-03-01T01:16:02;65.43;;;15.13;;
71622;SDS011;59473;53.214;5.728;2023-03-01T01:18:28;35.90;;;12.70;;
71622;SDS011;59473;53.214;5.728;2023-03-01T01:20:53;20.97;;;11.60;;
71622;SDS011;59473;53.214;5.728;2023-03-01T01:23:18;83.30;;;14.03;;
71622;SDS011;59473;53.214;5.728;2023-03-01T01:25:43;41.43;;;14.23;;
71622;SDS011;59473;53.214;5.728;2023-03-01T01:28:09;52.95;;;15.18;;
71622;SDS011;59473;53.214;5.728;2023-03-01T01:30:34;36.77;;;13.63;;
71622;SDS011;59473;53.214;5.728;2023-03-01T01:32:59;35.07;;;13.63;;
71622;SDS011;59473;53.214;5.728;2023-03-01T01:35:24;35.90;;;16.27;;
71622;SDS011;59473;53.214;5.728;2023-03-01T01:37:49;49.60;;;17.73;;
71622;SDS011;59473;53.214;5.728;2023-03-01T01:40:15;138.52;;;17.15;;
71622;SDS011;59473;53.214;5.728;2023-03-01T01:42:40;166.70;;;20.50;;
71622;SDS011;59473;53.214;5.728;2023-03-01T01:47:50;97.22;;;15.90;;
71622;SDS011;59473;53.214;5.728;2023-03-01T01:50:16;76.90;;;15.10;;
71622;SDS011;59473;53.214;5.728;2023-03-01T01:52:42;104.18;;;17.23;;
71622;SDS011;59473;53.214;5.728;2023-03-01T01:55:25;38.77;;;13.53;;
71622;SDS011;59473;53.214;5.728;2023-03-01T01:57:53;70.65;;;16.25;;
71622;SDS011;59473;53.214;5.728;2023-03-01T02:00:20;140.23;;;24.30;;
71622;SDS011;59473;53.214;5.728;2023-03-01T02:02:46;55.33;;;16.83;;
71622;SDS011;59473;53.214;5.728;2023-03-01T02:05:24;69.28;;;15.93;;
71622;SDS011;59473;53.214;5.728;2023-03-01T02:07:50;150.00;;;19.27;;
71622;SDS011;59473;53.214;5.728;2023-03-01T02:10:16;45.93;;;16.53;;
71622;SDS011;59473;53.214;5.728;2023-03-01T02:12:42;48.20;;;17.23;;
71622;SDS011;59473;53.214;5.728;2023-03-01T02:15:07;131.70;;;18.47;;
71622;SDS011;59473;53.214;5.728;2023-03-01T02:17:33;163.23;;;33.63;;
71622;SDS011;59473;53.214;5.728;2023-03-01T02:20:14;111.93;;;19.43;;
71622;SDS011;59473;53.214;5.728;2023-03-01T02:22:41;324.27;;;54.95;;
71622;SDS011;59473;53.214;5.728;2023-03-01T02:27:36;433.30;;;68.87;;
71622;SDS011;59473;53.214;5.728;2023-03-01T02:30:05;401.60;;;43.88;;
71622;SDS011;59473;53.214;5.728;2023-03-01T02:32:31;228.90;;;36.85;;
71622;SDS011;59473;53.214;5.728;2023-03-01T02:34:56;205.97;;;34.90;;
71622;SDS011;59473;53.214;5.728;2023-03-01T02:37:22;146.70;;;28.40;;
71622;SDS011;59473;53.214;5.728;2023-03-01T02:39:51;221.70;;;33.25;;
71622;SDS011;59473;53.214;5.728;2023-03-01T02:42:23;150.07;;;19.00;;
71622;SDS011;59473;53.214;5.728;2023-03-01T02:44:50;380.23;;;53.57;;
71622;SDS011;59473;53.214;5.728;2023-03-01T02:47:16;87.90;;;12.40;;
71622;SDS011;59473;53.214;5.728;2023-03-01T02:49:41;21.13;;;10.87;;
71622;SDS011;59473;53.214;5.728;2023-03-01T02:52:08;166.70;;;20.90;;
71622;SDS011;59473;53.214;5.728;2023-03-01T02:57:03;325.15;;;26.88;;
71622;SDS011;59473;53.214;5.728;2023-03-01T02:59:29;208.27;;;20.43;;
71622;SDS011;59473;53.214;5.728;2023-03-01T03:01:56;96.70;;;16.40;;
71622;SDS011;59473;53.214;5.728;2023-03-01T03:04:21;89.37;;;13.97;;
71622;SDS011;59473;53.214;5.728;2023-03-01T03:06:47;30.43;;;13.40;;
71622;SDS011;59473;53.214;5.728;2023-03-01T03:09:13;42.70;;;13.02;;
71622;SDS011;59473;53.214;5.728;2023-03-01T03:11:38;36.55;;;12.43;;
71622;SDS011;59473;53.214;5.728;2023-03-01T03:14:08;36.70;;;11.43;;
71622;SDS011;59473;53.214;5.728;2023-03-01T03:16:47;81.80;;;12.27;;
71622;SDS011;59473;53.214;5.728;2023-03-01T03:19:13;37.58;;;10.68;;
71622;SDS011;59473;53.214;5.728;2023-03-01T03:21:38;204.87;;;16.17;;
71622;SDS011;59473;53.214;5.728;2023-03-01T03:24:04;253.07;;;18.17;;
71622;SDS011;59473;53.214;5.728;2023-03-01T03:26:30;157.82;;;17.42;;
71622;SDS011;59473;53.214;5.728;2023-03-01T03:28:55;252.43;;;18.85;;
71622;SDS011;59473;53.214;5.728;2023-03-01T03:31:21;136.73;;;13.40;;
71622;SDS011;59473;53.214;5.728;2023-03-01T03:33:47;104.97;;;15.73;;
71622;SDS011;59473;53.214;5.728;2023-03-01T03:36:19;83.03;;;15.17;;
71622;SDS011;59473;53.214;5.728;2023-03-01T03:38:45;411.70;;;25.70;;
71622;SDS011;59473;53.214;5.728;2023-03-01T03:41:10;144.33;;;17.23;;
71622;SDS011;59473;53.214;5.728;2023-03-01T03:43:37;378.52;;;22.10;;
71622;SDS011;59473;53.214;5.728;2023-03-01T03:46:03;526.28;;;31.35;;
71622;SDS011;59473;53.214;5.728;2023-03-01T03:48:34;412.37;;;26.50;;
71622;SDS011;59473;53.214;5.728;2023-03-01T03:51:00;241.80;;;20.75;;
71622;SDS011;59473;53.214;5.728;2023-03-01T03:53:26;175.73;;;16.83;;
71622;SDS011;59473;53.214;5.728;2023-03-01T03:55:51;151.85;;;15.93;;
71622;SDS011;59473;53.214;5.728;2023-03-01T03:58:17;79.87;;;11.87;;
71622;SDS011;59473;53.214;5.728;2023-03-01T04:00:44;219.18;;;15.77;;
71622;SDS011;59473;53.214;5.728;2023-03-01T04:03:10;81.10;;;13.13;;
71622;SDS011;59473;53.214;5.728;2023-03-01T04:05:36;271.40;;;18.00;;
71622;SDS011;59473;53.214;5.728;2023-03-01T04:08:02;280.73;;;18.80;;
71622;SDS011;59473;53.214;5.728;2023-03-01T04:10:31;201.43;;;17.85;;
71622;SDS011;59473;53.214;5.728;2023-03-01T04:12:56;106.07;;;14.27;;
71622;SDS011;59473;53.214;5.728;2023-03-01T04:15:23;73.90;;;12.73;;
71622;SDS011;59473;53.214;5.728;2023-03-01T04:17:49;32.90;;;11.82;;
71622;SDS011;59473;53.214;5.728;2023-03-01T04:20:15;64.07;;;12.40;;
71622;SDS011;59473;53.214;5.728;2023-03-01T04:22:43;55.88;;;11.45;;
71622;SDS011;59473;53.214;5.728;2023-03-01T04:25:08;115.38;;;13.68;;
71622;SDS011;59473;53.214;5.728;2023-03-01T04:27:34;94.95;;;12.27;;
71622;SDS011;59473;53.214;5.728;2023-03-01T04:29:59;41.17;;;11.07;;
71622;SDS011;59473;53.214;5.728;2023-03-01T04:32:25;61.60;;;11.20;;
71622;SDS011;59473;53.214;5.728;2023-03-01T04:34:50;23.43;;;11.47;;
71622;SDS011;59473;53.214;5.728;2023-03-01T04:37:15;27.10;;;10.80;;
71622;SDS011;59473;53.214;5.728;2023-03-01T04:39:41;21.05;;;10.48;;
71622;SDS011;59473;53.214;5.728;2023-03-01T04:42:10;196.53;;;16.77;;
71622;SDS011;59473;53.214;5.728;2023-03-01T04:44:36;284.85;;;19.73;;
71622;SDS011;59473;53.214;5.728;2023-03-01T04:47:01;237.07;;;16.67;;
71622;SDS011;59473;53.214;5.728;2023-03-01T04:49:26;108.50;;;14.30;;
71622;SDS011;59473;53.214;5.728;2023-03-01T04:51:51;146.87;;;16.63;;
71622;SDS011;59473;53.214;5.728;2023-03-01T04:54:16;70.87;;;13.80;;
71622;SDS011;59473;53.214;5.728;2023-03-01T04:56:42;39.23;;;11.33;;
71622;SDS011;59473;53.214;5.728;2023-03-01T04:59:07;157.07;;;15.03;;
71622;SDS011;59473;53.214;5.728;2023-03-01T05:01:34;196.77;;;16.30;;
71622;SDS011;59473;53.214;5.728;2023-03-01T05:04:00;63.43;;;11.53;;
71622;SDS011;59473;53.214;5.728;2023-03-01T05:06:28;65.32;;;11.95;;
71622;SDS011;59473;53.214;5.728;2023-03-01T05:08:53;36.97;;;11.50;;
71622;SDS011;59473;53.214;5.728;2023-03-01T05:11:18;16.60;;;10.97;;
71622;SDS011;59473;53.214;5.728;2023-03-01T05:13:43;20.93;;;11.57;;
71622;SDS011;59473;53.214;5.728;2023-03-01T05:16:09;19.13;;;11.53;;
71622;SDS011;59473;53.214;5.728;2023-03-01T05:18:38;19.52;;;12.20;;
71622;SDS011;59473;53.214;5.728;2023-03-01T05:21:05;18.87;;;11.33;;
71622;SDS011;59473;53.214;5.728;2023-03-01T05:23:31;16.50;;;10.65;;
71622;SDS011;59473;53.214;5.728;2023-03-01T05:26:00;32.67;;;11.38;;
71622;SDS011;59473;53.214;5.728;2023-03-01T05:28:26;29.52;;;12.80;;
71622;SDS011;59473;53.214;5.728;2023-03-01T05:30:51;243.10;;;18.97;;
71622;SDS011;59473;53.214;5.728;2023-03-01T05:33:16;101.47;;;13.47;;
71622;SDS011;59473;53.214;5.728;2023-03-01T05:35:42;116.37;;;15.50;;
71622;SDS011;59473;53.214;5.728;2023-03-01T05:38:11;420.08;;;26.48;;
71622;SDS011;59473;53.214;5.728;2023-03-01T05:40:40;546.17;;;31.85;;
71622;SDS011;59473;53.214;5.728;2023-03-01T05:43:05;546.67;;;36.22;;
71622;SDS011;59473;53.214;5.728;2023-03-01T05:45:31;480.10;;;31.57;;
71622;SDS011;59473;53.214;5.728;2023-03-01T05:47:57;562.55;;;34.75;;
71622;SDS011;59473;53.214;5.728;2023-03-01T05:50:23;448.03;;;31.20;;
71622;SDS011;59473;53.214;5.728;2023-03-01T05:53:11;227.73;;;18.77;;
71622;SDS011;59473;53.214;5.728;2023-03-01T05:55:36;282.73;;;21.45;;
71622;SDS011;59473;53.214;5.728;2023-03-01T05:58:02;480.42;;;31.35;;
71622;SDS011;59473;53.214;5.728;2023-03-01T06:00:28;107.85;;;14.43;;
71622;SDS011;59473;53.214;5.728;2023-03-01T06:02:53;86.60;;;12.93;;
71622;SDS011;59473;53.214;5.728;2023-03-01T06:05:18;66.30;;;12.10;;
71622;SDS011;59473;53.214;5.728;2023-03-01T06:07:44;126.93;;;16.27;;
71622;SDS011;59473;53.214;5.728;2023-03-01T06:10:09;175.90;;;15.93;;
71622;SDS011;59473;53.214;5.728;2023-03-01T06:12:35;219.65;;;17.45;;
71622;SDS011;59473;53.214;5.728;2023-03-01T06:15:01;159.77;;;17.27;;
71622;SDS011;59473;53.214;5.728;2023-03-01T06:17:28;188.73;;;17.20;;
71622;SDS011;59473;53.214;5.728;2023-03-01T06:19:54;153.90;;;15.25;;
71622;SDS011;59473;53.214;5.728;2023-03-01T06:22:19;44.37;;;11.87;;
71622;SDS011;59473;53.214;5.728;2023-03-01T06:24:44;71.00;;;13.10;;
71622;SDS011;59473;53.214;5.728;2023-03-01T06:27:10;117.97;;;14.53;;
71622;SDS011;59473;53.214;5.728;2023-03-01T06:29:35;96.53;;;13.07;;
71622;SDS011;59473;53.214;5.728;2023-03-01T06:32:00;42.20;;;12.80;;
71622;SDS011;59473;53.214;5.728;2023-03-01T06:34:25;34.17;;;11.30;;
71622;SDS011;59473;53.214;5.728;2023-03-01T06:36:51;175.97;;;15.57;;
71622;SDS011;59473;53.214;5.728;2023-03-01T06:39:16;51.73;;;11.20;;
71622;SDS011;59473;53.214;5.728;2023-03-01T06:41:42;35.05;;;10.02;;
71622;SDS011;59473;53.214;5.728;2023-03-01T06:44:07;72.07;;;10.97;;
71622;SDS011;59473;53.214;5.728;2023-03-01T06:46:33;120.47;;;14.53;;
71622;SDS011;59473;53.214;5.728;2023-03-01T06:48:58;107.93;;;13.33;;
71622;SDS011;59473;53.214;5.728;2023-03-01T06:51:23;72.40;;;11.70;;
71622;SDS011;59473;53.214;5.728;2023-03-01T06:53:49;36.67;;;10.90;;
71622;SDS011;59473;53.214;5.728;2023-03-01T06:56:14;21.80;;;10.27;;
71622;SDS011;59473;53.214;5.728;2023-03-01T06:58:39;24.80;;;10.27;;
71622;SDS011;59473;53.214;5.728;2023-03-01T07:01:06;25.23;;;11.30;;
71622;SDS011;59473;53.214;5.728;2023-03-01T07:03:31;20.35;;;10.95;;
71622;SDS011;59473;53.214;5.728;2023-03-01T07:05:56;16.70;;;11.20;;
71622;SDS011;59473;53.214;5.728;2023-03-01T07:08:21;17.47;;;11.00;;
71622;SDS011;59473;53.214;5.728;2023-03-01T07:10:47;17.73;;;11.77;;
71622;SDS011;59473;53.214;5.728;2023-03-01T07:13:12;18.00;;;11.53;;
71622;SDS011;59473;53.214;5.728;2023-03-01T07:15:39;16.90;;;11.07;;
71622;SDS011;59473;53.214;5.728;2023-03-01T07:18:05;16.80;;;10.73;;
71622;SDS011;59473;53.214;5.728;2023-03-01T07:20:30;19.23;;;11.23;;
71622;SDS011;59473;53.214;5.728;2023-03-01T07:22:55;14.97;;;10.97;;
71622;SDS011;59473;53.214;5.728;2023-03-01T07:25:23;16.13;;;10.68;;
71622;SDS011;59473;53.214;5.728;2023-03-01T07:27:49;16.13;;;11.13;;
71622;SDS011;59473;53.214;5.728;2023-03-01T07:30:14;15.82;;;10.52;;
71622;SDS011;59473;53.214;5.728;2023-03-01T07:32:39;21.77;;;13.43;;
71622;SDS011;59473;53.214;5.728;2023-03-01T07:35:05;44.40;;;29.23;;
71622;SDS011;59473;53.214;5.728;2023-03-01T07:37:30;22.60;;;14.27;;
71622;SDS011;59473;53.214;5.728;2023-03-01T07:39:55;26.03;;;17.43;;
71622;SDS011;59473;53.214;5.728;2023-03-01T07:42:21;18.80;;;12.37;;
71622;SDS011;59473;53.214;5.728;2023-03-01T07:44:46;20.30;;;14.50;;
71622;SDS011;59473;53.214;5.728;2023-03-01T07:47:11;18.40;;;10.77;;
71622;SDS011;59473;53.214;5.728;2023-03-01T07:49:36;18.10;;;11.77;;
71622;SDS011;59473;53.214;5.728;2023-03-01T07:52:02;16.50;;;10.70;;
71622;SDS011;59473;53.214;5.728;2023-03-01T07:54:27;20.83;;;12.57;;
71622;SDS011;59473;53.214;5.728;2023-03-01T07:56:52;16.97;;;11.30;;
71622;SDS011;59473;53.214;5.728;2023-03-01T07:59:19;19.95;;;11.55;;
71622;SDS011;59473;53.214;5.728;2023-03-01T08:01:44;17.73;;;11.87;;
71622;SDS011;59473;53.214;5.728;2023-03-01T08:04:10;19.07;;;11.03;;
71622;SDS011;59473;53.214;5.728;2023-03-01T08:06:35;18.83;;;11.57;;
71622;SDS011;59473;53.214;5.728;2023-03-01T08:09:01;16.48;;;11.20;;
71622;SDS011;59473;53.214;5.728;2023-03-01T08:11:26;21.65;;;14.10;;
71622;SDS011;59473;53.214;5.728;2023-03-01T08:13:53;21.17;;;12.93;;
71622;SDS011;59473;53.214;5.728;2023-03-01T08:16:18;18.35;;;11.63;;
71622;SDS011;59473;53.214;5.728;2023-03-01T08:18:43;17.97;;;11.67;;
71622;SDS011;59473;53.214;5.728;2023-03-01T08:21:10;17.57;;;11.93;;
71622;SDS011;59473;53.214;5.728;2023-03-01T08:23:35;31.70;;;19.60;;
71622;SDS011;59473;53.214;5.728;2023-03-01T08:26:08;21.73;;;16.17;;
71622;SDS011;59473;53.214;5.728;2023-03-01T08:28:34;23.87;;;13.93;;
71622;SDS011;59473;53.214;5.728;2023-03-01T08:30:59;23.50;;;15.00;;
71622;SDS011;59473;53.214;5.728;2023-03-01T08:33:24;21.17;;;13.13;;
71622;SDS011;59473;53.214;5.728;2023-03-01T08:35:49;25.43;;;15.80;;
71622;SDS011;59473;53.214;5.728;2023-03-01T08:38:14;31.23;;;14.87;;
71622;SDS011;59473;53.214;5.728;2023-03-01T08:40:40;25.27;;;15.00;;
71622;SDS011;59473;53.214;5.728;2023-03-01T08:43:05;28.83;;;15.90;;
71622;SDS011;59473;53.214;5.728;2023-03-01T08:45:30;33.60;;;16.80;;
71622;SDS011;59473;53.214;5.728;2023-03-01T08:47:55;30.93;;;16.80;;
71622;SDS011;59473;53.214;5.728;2023-03-01T08:50:20;33.27;;;16.53;;
71622;SDS011;59473;53.214;5.728;2023-03-01T08:52:46;26.87;;;15.77;;
71622;SDS011;59473;53.214;5.728;2023-03-01T08:55:11;31.10;;;16.92;;
71622;SDS011;59473;53.214;5.728;2023-03-01T08:57:36;29.30;;;16.58;;
71622;SDS011;59473;53.214;5.728;2023-03-01T09:00:02;30.42;;;18.08;;
71622;SDS011;59473;53.214;5.728;2023-03-01T09:02:28;30.63;;;18.35;;
71622;SDS011;59473;53.214;5.728;2023-03-01T09:04:53;31.03;;;17.50;;
71622;SDS011;59473;53.214;5.728;2023-03-01T09:07:18;34.50;;;18.97;;
71622;SDS011;59473;53.214;5.728;2023-03-01T09:09:43;36.57;;;19.47;;
71622;SDS011;59473;53.214;5.728;2023-03-01T09:12:09;35.03;;;19.03;;
71622;SDS011;59473;53.214;5.728;2023-03-01T09:14:34;35.67;;;19.13;;
71622;SDS011;59473;53.214;5.728;2023-03-01T09:17:02;34.65;;;18.25;;
71622;SDS011;59473;53.214;5.728;2023-03-01T09:19:28;38.75;;;20.23;;
71622;SDS011;59473;53.214;5.728;2023-03-01T09:21:53;38.83;;;18.60;;
71622;SDS011;59473;53.214;5.728;2023-03-01T09:24:22;34.67;;;18.83;;
71622;SDS011;59473;53.214;5.728;2023-03-01T09:26:48;40.55;;;19.25;;
71622;SDS011;59473;53.214;5.728;2023-03-01T09:29:14;43.07;;;22.83;;
71622;SDS011;59473;53.214;5.728;2023-03-01T09:31:39;38.75;;;21.02;;
71622;SDS011;59473;53.214;5.728;2023-03-01T09:34:05;39.83;;;19.17;;
71622;SDS011;59473;53.214;5.728;2023-03-01T09:36:30;40.23;;;20.83;;
71622;SDS011;59473;53.214;5.728;2023-03-01T09:38:56;39.70;;;21.63;;
71622;SDS011;59473;53.214;5.728;2023-03-01T09:44:18;40.97;;;20.60;;
71622;SDS011;59473;53.214;5.728;2023-03-01T09:46:45;44.50;;;22.05;;
71622;SDS011;59473;53.214;5.728;2023-03-01T09:49:15;45.93;;;21.00;;
71622;SDS011;59473;53.214;5.728;2023-03-01T09:51:42;47.33;;;23.45;;
71622;SDS011;59473;53.214;5.728;2023-03-01T09:54:08;47.80;;;22.27;;
71622;SDS011;59473;53.214;5.728;2023-03-01T10:01:43;41.33;;;23.83;;
71622;SDS011;59473;53.214;5.728;2023-03-01T10:06:34;41.87;;;23.63;;
71622;SDS011;59473;53.214;5.728;2023-03-01T10:09:00;39.27;;;22.77;;
71622;SDS011;59473;53.214;5.728;2023-03-01T10:11:31;44.53;;;23.47;;
71622;SDS011;59473;53.214;5.728;2023-03-01T10:14:03;41.20;;;23.38;;
71622;SDS011;59473;53.214;5.728;2023-03-01T10:18:57;41.57;;;22.63;;
71622;SDS011;59473;53.214;5.728;2023-03-01T10:21:25;36.15;;;22.27;;
71622;SDS011;59473;53.214;5.728;2023-03-01T10:23:51;39.95;;;21.33;;
71622;SDS011;59473;53.214;5.728;2023-03-01T10:31:15;37.43;;;21.53;;
71622;SDS011;59473;53.214;5.728;2023-03-01T10:33:42;36.25;;;21.23;;
71622;SDS011;59473;53.214;5.728;2023-03-01T10:36:07;38.37;;;21.13;;
71622;SDS011;59473;53.214;5.728;2023-03-01T10:38:46;33.43;;;19.83;;
71622;SDS011;59473;53.214;5.728;2023-03-01T10:41:12;31.77;;;18.08;;
71622;SDS011;59473;53.214;5.728;2023-03-01T10:43:48;33.03;;;18.33;;
71622;SDS011;59473;53.214;5.728;2023-03-01T10:46:24;28.75;;;17.73;;
71622;SDS011;59473;53.214;5.728;2023-03-01T10:49:06;30.20;;;17.77;;
71622;SDS011;59473;53.214;5.728;2023-03-01T10:51:31;26.05;;;16.20;;
71622;SDS011;59473;53.214;5.728;2023-03-01T10:53:57;27.43;;;17.17;;
71622;SDS011;59473;53.214;5.728;2023-03-01T10:56:22;30.53;;;16.83;;
71622;SDS011;59473;53.214;5.728;2023-03-01T10:58:57;29.60;;;16.33;;
71622;SDS011;59473;53.214;5.728;2023-03-01T11:04:03;21.97;;;14.77;;
71622;SDS011;59473;53.214;5.728;2023-03-01T11:06:36;22.20;;;14.63;;
71622;SDS011;59473;53.214;5.728;2023-03-01T11:09:15;22.50;;;13.90;;
71622;SDS011;59473;53.214;5.728;2023-03-01T11:11:40;17.90;;;12.27;;
71622;SDS011;59473;53.214;5.728;2023-03-01T11:14:16;19.73;;;13.65;;
71622;SDS011;59473;53.214;5.728;2023-03-01T11:16:44;22.30;;;14.97;;
71622;SDS011;59473;53.214;5.728;2023-03-01T11:21:39;20.47;;;13.13;;
71622;SDS011;59473;53.214;5.728;2023-03-01T11:24:05;23.98;;;13.80;;
71622;SDS011;59473;53.214;5.728;2023-03-01T11:26:34;19.85;;;12.52;;
71622;SDS011;59473;53.214;5.728;2023-03-01T11:29:02;19.13;;;13.18;;
71622;SDS011;59473;53.214;5.728;2023-03-01T11:31:29;18.60;;;11.90;;
71622;SDS011;59473;53.214;5.728;2023-03-01T11:33:58;19.73;;;11.55;;
71622;SDS011;59473;53.214;5.728;2023-03-01T11:41:39;20.05;;;11.35;;
71622;SDS011;59473;53.214;5.728;2023-03-01T11:44:10;17.23;;;11.47;;
71622;SDS011;59473;53.214;5.728;2023-03-01T11:49:17;15.88;;;10.88;;
71622;SDS011;59473;53.214;5.728;2023-03-01T12:10:27;16.33;;;9.77;;
71622;SDS011;59473;53.214;5.728;2023-03-01T12:18:16;16.73;;;9.73;;
71622;SDS011;59473;53.214;5.728;2023-03-01T12:28:29;16.38;;;10.73;;
71622;SDS011;59473;53.214;5.728;2023-03-01T12:38:41;18.83;;;10.63;;
71622;SDS011;59473;53.214;5.728;2023-03-01T12:41:11;18.53;;;11.00;;
71622;SDS011;59473;53.214;5.728;2023-03-01T12:46:39;20.67;;;11.73;;
71622;SDS011;59473;53.214;5.728;2023-03-01T12:49:12;17.02;;;11.38;;
71622;SDS011;59473;53.214;5.728;2023-03-01T12:51:38;19.15;;;11.95;;
71622;SDS011;59473;53.214;5.728;2023-03-01T12:54:07;19.70;;;11.67;;
71622;SDS011;59473;53.214;5.728;2023-03-01T12:56:36;21.42;;;11.20;;
71622;SDS011;59473;53.214;5.728;2023-03-01T13:01:33;17.95;;;11.05;;
71622;SDS011;59473;53.214;5.728;2023-03-01T13:04:02;20.95;;;13.65;;
71622;SDS011;59473;53.214;5.728;2023-03-01T13:06:35;19.13;;;10.87;;
71622;SDS011;59473;53.214;5.728;2023-03-01T13:11:28;21.70;;;9.90;;
71622;SDS011;59473;53.214;5.728;2023-03-01T13:19:06;20.27;;;11.50;;
71622;SDS011;59473;53.214;5.728;2023-03-01T13:21:33;16.80;;;10.05;;
71622;SDS011;59473;53.214;5.728;2023-03-01T13:23:58;17.63;;;10.93;;
71622;SDS011;59473;53.214;5.728;2023-03-01T13:26:24;17.87;;;11.17;;
71622;SDS011;59473;53.214;5.728;2023-03-01T13:28:58;17.27;;;10.93;;
71622;SDS011;59473;53.214;5.728;2023-03-01T13:33:54;17.97;;;11.03;;
71622;SDS011;59473;53.214;5.728;2023-03-01T13:37:01;20.92;;;11.13;;
71622;SDS011;59473;53.214;5.728;2023-03-01T13:39:27;12.97;;;7.97;;
71622;SDS011;59473;53.214;5.728;2023-03-01T13:41:53;17.00;;;10.32;;
71622;SDS011;59473;53.214;5.728;2023-03-01T13:44:26;19.33;;;9.85;;
71622;SDS011;59473;53.214;5.728;2023-03-01T13:49:53;16.52;;;10.48;;
71622;SDS011;59473;53.214;5.728;2023-03-01T13:54:45;15.50;;;8.80;;
71622;SDS011;59473;53.214;5.728;2023-03-01T13:57:12;15.77;;;9.68;;
71622;SDS011;59473;53.214;5.728;2023-03-01T13:59:46;18.30;;;10.23;;
71622;SDS011;59473;53.214;5.728;2023-03-01T14:02:12;17.67;;;10.40;;
71622;SDS011;59473;53.214;5.728;2023-03-01T14:04:37;16.90;;;9.80;;
71622;SDS011;59473;53.214;5.728;2023-03-01T14:07:20;18.67;;;10.32;;
71622;SDS011;59473;53.214;5.728;2023-03-01T14:09:47;17.07;;;9.27;;
71622;SDS011;59473;53.214;5.728;2023-03-01T14:15:01;16.17;;;8.68;;
71622;SDS011;59473;53.214;5.728;2023-03-01T14:20:22;18.92;;;11.00;;
71622;SDS011;59473;53.214;5.728;2023-03-01T14:22:48;17.03;;;10.20;;
71622;SDS011;59473;53.214;5.728;2023-03-01T14:27:42;17.50;;;10.23;;
71622;SDS011;59473;53.214;5.728;2023-03-01T14:30:19;17.53;;;10.53;;
71622;SDS011;59473;53.214;5.728;2023-03-01T14:32:54;21.08;;;11.05;;
71622;SDS011;59473;53.214;5.728;2023-03-01T14:35:27;15.10;;;9.95;;
71622;SDS011;59473;53.214;5.728;2023-03-01T14:37:52;16.02;;;10.20;;
71622;SDS011;59473;53.214;5.728;2023-03-01T14:40:22;16.90;;;11.10;;
71622;SDS011;59473;53.214;5.728;2023-03-01T14:42:48;17.75;;;10.23;;
71622;SDS011;59473;53.214;5.728;2023-03-01T14:45:14;16.63;;;9.27;;
71622;SDS011;59473;53.214;5.728;2023-03-01T14:47:39;16.00;;;9.53;;
71622;SDS011;59473;53.214;5.728;2023-03-01T14:50:16;14.50;;;9.10;;
71622;SDS011;59473;53.214;5.728;2023-03-01T14:52:45;17.00;;;9.75;;
71622;SDS011;59473;53.214;5.728;2023-03-01T14:55:18;16.15;;;8.82;;
71622;SDS011;59473;53.214;5.728;2023-03-01T14:57:47;15.57;;;9.63;;
71622;SDS011;59473;53.214;5.728;2023-03-01T15:00:16;16.47;;;9.87;;
71622;SDS011;59473;53.214;5.728;2023-03-01T15:02:42;13.88;;;8.35;;
71622;SDS011;59473;53.214;5.728;2023-03-01T15:05:08;16.17;;;10.02;;
71622;SDS011;59473;53.214;5.728;2023-03-01T15:07:35;15.07;;;9.85;;
71622;SDS011;59473;53.214;5.728;2023-03-01T15:10:02;18.25;;;11.20;;
71622;SDS011;59473;53.214;5.728;2023-03-01T15:14:53;16.30;;;9.60;;
71622;SDS011;59473;53.214;5.728;2023-03-01T15:17:37;15.53;;;9.23;;
71622;SDS011;59473;53.214;5.728;2023-03-01T15:20:13;14.20;;;8.68;;
71622;SDS011;59473;53.214;5.728;2023-03-01T15:22:43;13.98;;;7.95;;
71622;SDS011;59473;53.214;5.728;2023-03-01T15:25:19;12.23;;;7.45;;
71622;SDS011;59473;53.214;5.728;2023-03-01T15:27:46;12.20;;;7.53;;
71622;SDS011;59473;53.214;5.728;2023-03-01T15:30:19;13.73;;;8.45;;
71622;SDS011;59473;53.214;5.728;2023-03-01T15:32:45;13.88;;;8.88;;
71622;SDS011;59473;53.214;5.728;2023-03-01T15:37:54;12.60;;;8.73;;
71622;SDS011;59473;53.214;5.728;2023-03-01T15:40:24;13.40;;;7.40;;
71622;SDS011;59473;53.214;5.728;2023-03-01T15:42:56;14.30;;;7.70;;
71622;SDS011;59473;53.214;5.728;2023-03-01T15:45:22;13.23;;;8.13;;
71622;SDS011;59473;53.214;5.728;2023-03-01T15:47:52;12.82;;;7.88;;
71622;SDS011;59473;53.214;5.728;2023-03-01T15:50:22;15.70;;;8.35;;
71622;SDS011;59473;53.214;5.728;2023-03-01T15:52:48;13.27;;;7.83;;
71622;SDS011;59473;53.214;5.728;2023-03-01T15:55:15;13.70;;;8.70;;
71622;SDS011;59473;53.214;5.728;2023-03-01T15:57:41;14.82;;;8.60;;
71622;SDS011;59473;53.214;5.728;2023-03-01T16:00:09;13.67;;;8.27;;
71622;SDS011;59473;53.214;5.728;2023-03-01T16:02:38;13.95;;;8.52;;
71622;SDS011;59473;53.214;5.728;2023-03-01T16:05:03;14.87;;;8.80;;
71622;SDS011;59473;53.214;5.728;2023-03-01T16:07:29;20.17;;;11.43;;
71622;SDS011;59473;53.214;5.728;2023-03-01T16:09:55;18.15;;;10.30;;
71622;SDS011;59473;53.214;5.728;2023-03-01T16:12:21;21.90;;;10.73;;